Time;durP1;ratioP1;P1;durP2;ratioP2;P2;SDS_P1;SDS_P2;PMS_P1;PMS_P2;Temp;Humidity;BMP_temperature;BMP_pressure;BME280_temperature;BME280_humidity;BME280_pressure;Samples;Min_cycle;Max_cycle;Signal;HPM_P1;HPM_P2
2021/09/24 00:01:34;;;;;;;13.10;9.73;;;358.40;1740.80;;;;;;5114416;28;20039;-62
2021/09/24 00:04:00;;;;;;;13.55;9.98;;;358.40;1740.80;;;;;;5115803;27;20462;-62
2021/09/24 00:06:26;;;;;;;12.57;9.95;;;358.40;1740.80;;;;;;5115913;28;20027;-62
2021/09/24 00:08:52;;;;;;;13.48;10.00;;;358.50;1740.80;;;;;;5115646;28;20027;-62
2021/09/24 00:11:18;;;;;;;11.68;9.77;;;358.50;1740.80;;;;;;5114310;28;20027;-63
2021/09/24 00:13:43;;;;;;;14.38;10.05;;;358.50;1740.80;;;;;;5115681;28;20028;-63
2021/09/24 00:16:09;;;;;;;14.02;9.25;;;358.50;1740.80;;;;;;5115772;28;20107;-63
2021/09/24 00:18:35;;;;;;;15.20;9.82;;;358.50;1740.80;;;;;;5115137;28;20031;-62
2021/09/24 00:21:01;;;;;;;12.05;10.15;;;358.50;1740.80;;;;;;5115603;28;20043;-62
2021/09/24 00:23:27;;;;;;;14.23;9.85;;;358.60;1740.80;;;;;;5115358;28;20093;-62
2021/09/24 00:25:52;;;;;;;14.80;9.80;;;358.60;1740.80;;;;;;5115282;28;20043;-62
2021/09/24 00:28:18;;;;;;;13.88;9.32;;;358.60;1740.80;;;;;;5114153;28;20020;-62
2021/09/24 00:30:44;;;;;;;12.50;9.07;;;358.50;1740.80;;;;;;5115035;28;20428;-63
2021/09/24 00:33:09;;;;;;;12.25;8.88;;;358.60;1740.80;;;;;;5115284;28;20024;-62
2021/09/24 00:35:35;;;;;;;14.60;10.23;;;358.50;1740.80;;;;;;5115379;27;20023;-62
2021/09/24 00:38:01;;;;;;;17.20;10.25;;;358.60;1740.80;;;;;;5114394;28;20032;-62
2021/09/24 00:40:27;;;;;;;12.60;9.48;;;358.60;1740.80;;;;;;5115201;28;20487;-62
2021/09/24 00:42:52;;;;;;;13.05;8.80;;;358.80;1740.80;;;;;;5114844;28;20506;-62
2021/09/24 00:45:18;;;;;;;12.13;8.65;;;358.60;1715.20;;;;;;5115131;28;20043;-62
2021/09/24 00:47:44;;;;;;;15.25;8.90;;;358.60;1715.20;;;;;;5115297;28;20030;-62
2021/09/24 00:50:10;;;;;;;14.05;8.63;;;358.60;1715.20;;;;;;5113446;28;20028;-62
2021/09/24 00:52:35;;;;;;;12.82;8.90;;;358.70;1715.20;;;;;;5114642;28;20031;-62
2021/09/24 00:55:03;;;;;;;12.07;9.27;;;358.70;1715.20;;;;;;5114979;28;20031;-63
2021/09/24 00:57:29;;;;;;;13.10;8.80;;;358.70;1715.20;;;;;;5114859;28;20028;-63
2021/09/24 01:00:14;;;;;;;12.57;10.00;;;358.80;1715.20;;;;;;5114819;28;20435;-62
2021/09/24 01:02:39;;;;;;;13.35;9.18;;;358.80;1689.60;;;;;;5113261;28;20036;-62
2021/09/24 01:05:08;;;;;;;12.73;9.15;;;358.80;1689.60;;;;;;5114363;28;20381;-62
2021/09/24 01:07:42;;;;;;;17.83;9.30;;;358.80;1689.60;;;;;;5113300;28;20385;-62
2021/09/24 01:10:09;;;;;;;12.40;9.68;;;358.80;1689.60;;;;;;5114660;28;20027;-62
2021/09/24 01:12:35;;;;;;;12.80;9.50;;;358.80;1689.60;;;;;;5114836;28;20023;-62
2021/09/24 01:15:07;;;;;;;19.27;10.88;;;358.80;1689.60;;;;;;5114672;28;20583;-62
2021/09/24 01:17:33;;;;;;;22.55;11.57;;;358.80;1689.60;;;;;;5113277;28;20035;-62
2021/09/24 01:19:59;;;;;;;17.88;10.18;;;358.80;1689.60;;;;;;5114577;28;20020;-62
2021/09/24 01:22:25;;;;;;;14.60;9.48;;;358.80;1689.60;;;;;;5114343;28;20541;-62
2021/09/24 01:24:51;;;;;;;19.90;9.70;;;358.80;1689.60;;;;;;5114563;28;20412;-63
2021/09/24 01:27:17;;;;;;;15.35;9.65;;;358.80;1689.60;;;;;;5114541;28;20158;-63
2021/09/24 01:29:43;;;;;;;15.98;9.73;;;358.80;1664.00;;;;;;5114324;28;20028;-63
2021/09/24 01:32:09;;;;;;;15.43;10.15;;;358.80;1664.00;;;;;;5114514;28;20055;-62
2021/09/24 01:34:34;;;;;;;16.33;10.00;;;358.80;1664.00;;;;;;5113820;28;20055;-62
2021/09/24 01:37:00;;;;;;;13.02;9.13;;;358.80;1664.00;;;;;;5114405;28;20058;-62
2021/09/24 01:39:26;;;;;;;14.40;9.02;;;358.80;1664.00;;;;;;5113891;28;20048;-62
2021/09/24 01:41:52;;;;;;;12.95;9.32;;;358.80;1664.00;;;;;;5113762;28;20062;-63
2021/09/24 01:44:18;;;;;;;13.65;9.20;;;358.80;1664.00;;;;;;5114290;28;20066;-62
2021/09/24 01:46:46;;;;;;;13.75;9.00;;;358.80;1664.00;;;;;;5113768;28;20032;-62
2021/09/24 01:49:12;;;;;;;17.15;10.07;;;358.80;1664.00;;;;;;5114221;28;20023;-62
2021/09/24 01:51:41;;;;;;;14.27;9.70;;;358.80;1689.60;;;;;;5114250;28;20039;-62
2021/09/24 01:54:07;;;;;;;19.48;9.02;;;358.80;1689.60;;;;;;5114250;28;20024;-62
2021/09/24 01:56:33;;;;;;;16.20;8.18;;;358.80;1689.60;;;;;;5113869;28;20028;-62
2021/09/24 01:58:59;;;;;;;10.80;8.45;;;358.70;1689.60;;;;;;5113809;28;20106;-62
2021/09/24 02:01:25;;;;;;;13.32;7.65;;;358.60;1689.60;;;;;;5113937;28;20107;-62
2021/09/24 02:03:51;;;;;;;9.23;6.90;;;358.70;1689.60;;;;;;5116272;28;20372;-63
2021/09/24 02:06:17;;;;;;;11.43;8.30;;;358.70;1689.60;;;;;;5118213;28;20026;-62
2021/09/24 02:08:43;;;;;;;9.20;7.18;;;358.70;1715.20;;;;;;5118191;28;20538;-62
2021/09/24 02:11:11;;;;;;;10.05;7.30;;;358.70;1715.20;;;;;;5117922;27;20020;-62
2021/09/24 02:13:41;;;;;;;10.43;7.18;;;358.70;1715.20;;;;;;5117719;28;20038;-62
2021/09/24 02:16:08;;;;;;;9.88;7.60;;;358.70;1715.20;;;;;;5118125;28;20458;-62
2021/09/24 02:18:35;;;;;;;10.43;7.78;;;358.70;1715.20;;;;;;5117899;28;20053;-62
2021/09/24 02:21:01;;;;;;;8.75;7.53;;;358.60;1689.60;;;;;;5117849;28;20191;-62
2021/09/24 02:23:28;;;;;;;9.02;7.63;;;358.60;1715.20;;;;;;5117892;28;20111;-62
2021/09/24 02:25:54;;;;;;;14.77;7.88;;;358.60;1740.80;;;;;;5118199;28;20439;-62
2021/09/24 02:28:19;;;;;;;10.25;7.32;;;358.60;1740.80;;;;;;5117685;28;20515;-62
2021/09/24 02:30:45;;;;;;;12.18;7.93;;;358.60;1740.80;;;;;;5116237;28;20067;-62
2021/09/24 02:33:11;;;;;;;12.40;8.23;;;358.60;1740.80;;;;;;5117496;28;20020;-62
2021/09/24 02:35:37;;;;;;;11.35;8.10;;;358.60;1740.80;;;;;;5117682;28;20028;-62
2021/09/24 02:38:03;;;;;;;13.13;8.07;;;358.50;1740.80;;;;;;5117820;28;20015;-62
2021/09/24 02:40:28;;;;;;;10.60;8.23;;;358.60;1766.40;;;;;;5117535;28;20107;-62
2021/09/24 02:42:54;;;;;;;10.68;7.15;;;358.60;1740.80;;;;;;5117235;28;20036;-62
2021/09/24 02:45:20;;;;;;;10.50;8.05;;;358.50;1766.40;;;;;;5117674;28;20020;-62
2021/09/24 02:47:46;;;;;;;13.27;8.43;;;358.40;1766.40;;;;;;5116919;28;20440;-62
2021/09/24 02:50:12;;;;;;;10.38;7.90;;;358.40;1766.40;;;;;;5117225;28;20377;-62
2021/09/24 02:52:38;;;;;;;12.00;8.52;;;358.40;1766.40;;;;;;5115631;28;20035;-62
2021/09/24 02:55:06;;;;;;;11.18;8.05;;;358.40;1766.40;;;;;;5117057;28;20481;-61
2021/09/24 02:57:31;;;;;;;9.50;7.97;;;358.40;1792.00;;;;;;5117029;28;20088;-62
2021/09/24 02:59:57;;;;;;;10.13;8.35;;;333.70;1766.40;;;;;;5116925;28;20024;-62
2021/09/24 03:02:23;;;;;;;10.93;7.82;;;333.70;1766.40;;;;;;5116892;28;20047;-62
2021/09/24 03:04:49;;;;;;;11.27;7.72;;;333.70;1792.00;;;;;;5116814;28;20416;-62
2021/09/24 03:07:15;;;;;;;9.20;7.35;;;333.70;1766.40;;;;;;5116752;27;20020;-62
2021/09/24 03:09:40;;;;;;;10.27;8.15;;;333.70;1792.00;;;;;;5116650;28;20019;-62
2021/09/24 03:12:06;;;;;;;12.82;8.32;;;333.60;1792.00;;;;;;5116529;28;20023;-62
2021/09/24 03:14:32;;;;;;;18.52;9.93;;;333.60;1792.00;;;;;;5116447;28;20037;-62
2021/09/24 03:16:58;;;;;;;15.27;8.75;;;333.60;1817.60;;;;;;5116876;28;20108;-62
2021/09/24 03:19:25;;;;;;;11.93;7.85;;;333.60;1817.60;;;;;;5116744;28;20099;-63
2021/09/24 03:21:51;;;;;;;18.88;9.05;;;333.60;1817.60;;;;;;5114578;28;20066;-63
2021/09/24 03:24:18;;;;;;;11.02;8.45;;;333.60;1817.60;;;;;;5116504;28;20020;-62
2021/09/24 03:26:45;;;;;;;11.00;8.23;;;333.60;1817.60;;;;;;5116163;28;20026;-62
2021/09/24 03:29:11;;;;;;;12.93;9.32;;;333.50;1792.00;;;;;;5116366;28;20381;-62
2021/09/24 03:31:38;;;;;;;11.05;8.45;;;333.50;1817.60;;;;;;5116520;28;20043;-62
2021/09/24 03:34:05;;;;;;;12.25;9.07;;;333.50;1817.60;;;;;;5116492;28;20020;-62
2021/09/24 03:36:31;;;;;;;15.95;9.48;;;333.50;1817.60;;;;;;5116463;28;20088;-62
2021/09/24 03:38:57;;;;;;;11.00;9.20;;;333.50;1817.60;;;;;;5116182;28;20032;-62
2021/09/24 03:41:23;;;;;;;14.68;9.38;;;333.50;1817.60;;;;;;5115909;28;20044;-62
2021/09/24 03:43:49;;;;;;;13.75;9.35;;;333.50;1817.60;;;;;;5116040;28;20114;-62
2021/09/24 03:46:14;;;;;;;15.88;9.95;;;333.50;1817.60;;;;;;5115874;28;20042;-63
2021/09/24 03:48:40;;;;;;;101.78;91.25;;;333.50;1843.20;;;;;;5116052;28;20023;-63
2021/09/24 03:51:06;;;;;;;54.95;38.38;;;333.40;1817.60;;;;;;5116090;28;20020;-63
2021/09/24 03:53:32;;;;;;;76.13;50.83;;;333.40;1817.60;;;;;;5116143;28;20118;-63
2021/09/24 03:55:58;;;;;;;36.42;23.45;;;333.40;1843.20;;;;;;5115981;28;20020;-63
2021/09/24 03:58:23;;;;;;;18.42;12.40;;;333.40;1843.20;;;;;;5114955;28;20028;-63
2021/09/24 04:00:51;;;;;;;17.83;10.45;;;333.30;1868.80;;;;;;5115992;28;20051;-63
2021/09/24 04:03:17;;;;;;;13.40;10.40;;;333.30;1868.80;;;;;;5114419;28;20130;-63
2021/09/24 04:05:44;;;;;;;17.83;9.20;;;333.30;1868.80;;;;;;5115731;28;20023;-62
2021/09/24 04:08:10;;;;;;;15.65;10.40;;;333.30;1868.80;;;;;;5115717;28;20107;-62
2021/09/24 04:10:36;;;;;;;14.63;8.85;;;333.30;1868.80;;;;;;5115031;28;20024;-62
2021/09/24 04:13:02;;;;;;;17.80;8.88;;;333.20;1868.80;;;;;;5115635;28;20080;-63
2021/09/24 04:15:28;;;;;;;15.27;10.02;;;333.20;1868.80;;;;;;5115447;28;20073;-63
2021/09/24 04:17:54;;;;;;;20.13;10.60;;;333.10;1868.80;;;;;;5115272;28;20061;-62
2021/09/24 04:20:20;;;;;;;20.77;11.48;;;333.10;1868.80;;;;;;5115554;28;20024;-63
2021/09/24 04:22:45;;;;;;;22.95;13.23;;;333.10;1868.80;;;;;;5115338;28;20040;-62
2021/09/24 04:25:11;;;;;;;27.60;14.07;;;333.10;1868.80;;;;;;5114935;28;20485;-63
2021/09/24 04:27:38;;;;;;;27.10;14.38;;;333.00;1868.80;;;;;;5114947;28;20412;-62
2021/09/24 04:30:05;;;;;;;23.75;13.05;;;333.00;1868.80;;;;;;5115361;28;20028;-62
2021/09/24 04:32:30;;;;;;;22.67;12.40;;;333.00;1868.80;;;;;;5115118;28;20016;-63
2021/09/24 04:34:56;;;;;;;20.88;12.88;;;333.00;1868.80;;;;;;5114836;28;20337;-63
2021/09/24 04:37:22;;;;;;;20.38;13.25;;;332.90;1868.80;;;;;;5115705;28;20442;-63
2021/09/24 04:39:48;;;;;;;22.98;13.18;;;332.90;1868.80;;;;;;5115429;28;20046;-63
2021/09/24 04:42:13;;;;;;;21.20;12.15;;;332.80;1868.80;;;;;;5114733;28;20134;-63
2021/09/24 04:44:40;;;;;;;24.00;12.57;;;332.80;1894.40;;;;;;5115086;28;20020;-63
2021/09/24 04:47:06;;;;;;;26.77;14.02;;;332.90;1894.40;;;;;;5115127;28;20028;-63
2021/09/24 04:49:32;;;;;;;21.80;13.63;;;332.80;1868.80;;;;;;5114269;28;20469;-63
2021/09/24 04:51:57;;;;;;;20.58;10.52;;;332.80;1868.80;;;;;;5114872;28;20032;-63
2021/09/24 04:54:23;;;;;;;20.27;10.80;;;332.80;1868.80;;;;;;5114834;28;20023;-63
2021/09/24 04:56:49;;;;;;;20.00;11.07;;;332.90;1843.20;;;;;;5114599;28;20526;-63
2021/09/24 04:59:15;;;;;;;27.35;12.35;;;332.80;1843.20;;;;;;5114775;28;20103;-63
2021/09/24 05:01:40;;;;;;;24.67;12.75;;;332.90;1843.20;;;;;;5114308;28;20118;-63
2021/09/24 05:04:06;;;;;;;23.88;14.10;;;332.90;1843.20;;;;;;5114723;28;20031;-63
2021/09/24 05:06:32;;;;;;;24.80;13.70;;;332.90;1868.80;;;;;;5114604;28;20027;-63
2021/09/24 05:08:57;;;;;;;37.60;12.73;;;333.00;1843.20;;;;;;5114326;28;20031;-63
2021/09/24 05:11:23;;;;;;;30.73;11.63;;;333.00;1868.80;;;;;;5114421;28;20110;-63
2021/09/24 05:13:49;;;;;;;20.30;11.57;;;333.00;1868.80;;;;;;5114585;28;20034;-63
2021/09/24 05:16:15;;;;;;;22.13;10.90;;;333.00;1843.20;;;;;;5114588;28;20028;-62
2021/09/24 05:18:44;;;;;;;15.48;11.15;;;333.10;1868.80;;;;;;5114432;28;20553;-62
2021/09/24 05:21:11;;;;;;;20.95;10.85;;;333.10;1868.80;;;;;;5113976;28;20031;-63
2021/09/24 05:23:37;;;;;;;26.63;11.95;;;333.10;1868.80;;;;;;5113662;28;20055;-63
2021/09/24 05:26:03;;;;;;;17.42;12.02;;;333.10;1868.80;;;;;;5114261;28;20024;-62
2021/09/24 05:28:30;;;;;;;17.92;12.75;;;333.10;1868.80;;;;;;5114443;28;20020;-63
2021/09/24 05:30:55;;;;;;;27.63;14.55;;;333.10;1868.80;;;;;;5112708;28;20020;-62
2021/09/24 05:33:21;;;;;;;28.15;17.13;;;333.20;1868.80;;;;;;5113184;28;20358;-62
2021/09/24 05:35:47;;;;;;;37.50;17.23;;;333.20;1843.20;;;;;;5111066;28;20492;-63
2021/09/24 05:38:13;;;;;;;36.60;16.73;;;333.30;1843.20;;;;;;5112852;28;20023;-62
2021/09/24 05:40:39;;;;;;;31.05;17.20;;;333.30;1843.20;;;;;;5112689;28;20059;-63
2021/09/24 05:43:05;;;;;;;31.00;17.00;;;333.40;1817.60;;;;;;5109653;28;20124;-62
2021/09/24 05:45:30;;;;;;;37.30;18.15;;;333.40;1843.20;;;;;;5112586;28;20015;-63
2021/09/24 05:47:56;;;;;;;36.88;19.20;;;333.50;1817.60;;;;;;5112537;28;20019;-62
2021/09/24 05:50:22;;;;;;;37.08;18.63;;;333.50;1843.20;;;;;;5112680;28;20105;-63
2021/09/24 05:52:51;;;;;;;40.30;18.98;;;333.50;1817.60;;;;;;5111224;28;20054;-64
2021/09/24 05:55:20;;;;;;;29.73;17.35;;;333.60;1817.60;;;;;;5112833;28;20031;-64
2021/09/24 05:57:47;;;;;;;28.60;16.60;;;333.60;1817.60;;;;;;5113036;28;20031;-64
2021/09/24 06:00:15;;;;;;;31.58;15.50;;;333.70;1792.00;;;;;;5112469;28;20095;-62
2021/09/24 06:02:53;;;;;;;28.23;16.08;;;333.70;1792.00;;;;;;5112538;28;20067;-64
2021/09/24 06:05:19;;;;;;;30.60;14.32;;;358.40;1792.00;;;;;;5127247;28;20019;-64
2021/09/24 06:07:44;;;;;;;28.42;15.38;;;358.40;1792.00;;;;;;5112631;28;20466;-63
2021/09/24 06:10:12;;;;;;;24.42;12.95;;;358.40;1792.00;;;;;;5112435;28;20019;-63
2021/09/24 06:12:37;;;;;;;23.20;11.82;;;358.50;1792.00;;;;;;5109706;28;20491;-63
2021/09/24 06:15:05;;;;;;;20.67;11.70;;;358.60;1792.00;;;;;;5112535;28;20012;-63
2021/09/24 06:17:32;;;;;;;28.40;11.68;;;358.60;1792.00;;;;;;5111944;28;20477;-63
2021/09/24 06:19:58;;;;;;;33.58;10.95;;;358.60;1792.00;;;;;;5113563;28;20431;-63
2021/09/24 06:22:27;;;;;;;18.58;10.65;;;358.60;1792.00;;;;;;5113741;28;20443;-63
2021/09/24 06:24:52;;;;;;;19.15;10.90;;;358.70;1792.00;;;;;;5113819;28;20419;-63
2021/09/24 06:27:19;;;;;;;19.88;10.77;;;358.70;1792.00;;;;;;5113480;28;20024;-63
2021/09/24 06:29:47;;;;;;;16.30;9.93;;;358.70;1792.00;;;;;;5112577;28;20027;-63
2021/09/24 06:32:13;;;;;;;23.92;10.65;;;358.80;1792.00;;;;;;5113836;28;20055;-63
2021/09/24 06:34:40;;;;;;;19.90;10.18;;;358.90;1792.00;;;;;;5113350;28;20027;-63
2021/09/24 06:37:06;;;;;;;18.13;10.73;;;358.90;1792.00;;;;;;5112676;28;20039;-63
2021/09/24 06:39:32;;;;;;;18.13;9.10;;;358.90;1792.00;;;;;;5112442;28;20485;-63
2021/09/24 06:41:58;;;;;;;13.32;9.70;;;358.90;1792.00;;;;;;5112961;28;20401;-63
2021/09/24 06:44:24;;;;;;;14.88;10.07;;;359.00;1792.00;;;;;;5114178;28;20023;-63
2021/09/24 06:46:50;;;;;;;21.08;9.50;;;359.10;1792.00;;;;;;5113518;28;20019;-63
2021/09/24 06:49:16;;;;;;;11.48;9.05;;;359.10;1792.00;;;;;;5114855;28;20130;-63
2021/09/24 06:51:42;;;;;;;15.18;8.27;;;359.20;1792.00;;;;;;5117379;27;20069;-62
2021/09/24 06:54:08;;;;;;;15.48;9.18;;;359.30;1792.00;;;;;;5117343;28;20512;-62
2021/09/24 06:56:35;;;;;;;15.63;8.57;;;384.00;1792.00;;;;;;5115774;28;20066;-63
2021/09/24 06:59:01;;;;;;;12.30;8.77;;;384.10;1792.00;;;;;;5117246;28;20024;-63
2021/09/24 07:01:29;;;;;;;13.63;8.55;;;384.20;1766.40;;;;;;5116986;28;20461;-63
2021/09/24 07:03:55;;;;;;;10.70;7.97;;;384.40;1766.40;;;;;;5116806;28;20034;-63
2021/09/24 07:06:21;;;;;;;13.93;8.13;;;384.50;1766.40;;;;;;5117114;28;20019;-63
2021/09/24 07:08:46;;;;;;;15.52;8.45;;;384.70;1740.80;;;;;;5115252;28;20039;-63
2021/09/24 07:11:12;;;;;;;10.23;8.25;;;384.80;1715.20;;;;;;5116946;28;20035;-63
2021/09/24 07:13:38;;;;;;;14.15;8.32;;;384.90;1715.20;;;;;;5117453;28;20024;-63
2021/09/24 07:16:05;;;;;;;14.13;8.43;;;409.70;1740.80;;;;;;5116686;28;20020;-63
2021/09/24 07:18:31;;;;;;;14.45;8.82;;;409.80;1715.20;;;;;;5116789;28;20024;-63
2021/09/24 07:20:57;;;;;;;16.80;9.00;;;410.00;1715.20;;;;;;5116856;28;20039;-62
2021/09/24 07:23:23;;;;;;;15.20;9.25;;;410.20;1689.60;;;;;;5116571;28;20534;-63
2021/09/24 07:25:50;;;;;;;14.60;8.70;;;410.40;1689.60;;;;;;5115356;28;20131;-63
2021/09/24 07:28:16;;;;;;;13.88;7.85;;;435.20;1664.00;;;;;;5116479;28;20020;-63
2021/09/24 07:30:42;;;;;;;11.27;7.15;;;435.40;1638.40;;;;;;5116946;28;20032;-63
2021/09/24 07:33:08;;;;;;;10.43;7.25;;;435.60;1638.40;;;;;;5116219;28;20113;-63
2021/09/24 07:35:34;;;;;;;9.30;7.32;;;435.70;1612.80;;;;;;5115888;28;20028;-63
2021/09/24 07:38:00;;;;;;;10.75;7.18;;;435.90;1587.20;;;;;;5116575;28;20058;-63
2021/09/24 07:40:27;;;;;;;12.80;7.15;;;436.00;1587.20;;;;;;5116252;28;20019;-63
2021/09/24 07:42:53;;;;;;;8.50;6.43;;;460.80;1612.80;;;;;;5115924;28;20039;-63
2021/09/24 07:45:20;;;;;;;14.02;6.05;;;460.90;1587.20;;;;;;5116941;28;20080;-63
2021/09/24 07:47:46;;;;;;;9.65;5.93;;;461.10;1561.60;;;;;;5114830;28;20020;-63
2021/09/24 07:50:12;;;;;;;11.35;5.50;;;461.20;1587.20;;;;;;5114831;28;20039;-63
2021/09/24 07:52:37;;;;;;;11.10;5.63;;;461.30;1561.60;;;;;;5116284;28;20027;-63
2021/09/24 07:55:04;;;;;;;7.25;5.43;;;461.50;1561.60;;;;;;5116093;28;20019;-63
2021/09/24 07:57:30;;;;;;;7.07;5.63;;;461.60;1536.00;;;;;;5114777;28;20176;-63
2021/09/24 07:59:56;;;;;;;9.52;6.22;;;461.70;1536.00;;;;;;5115621;28;20047;-63
2021/09/24 08:02:21;;;;;;;8.25;5.70;;;486.40;1536.00;;;;;;5115363;28;20031;-63
2021/09/24 08:04:47;;;;;;;9.50;4.80;;;486.50;1536.00;;;;;;5116065;28;20016;-63
2021/09/24 08:07:13;;;;;;;7.53;5.30;;;486.50;1510.40;;;;;;5116007;28;20030;-63
2021/09/24 08:09:39;;;;;;;9.43;5.18;;;486.60;1510.40;;;;;;5115961;28;20023;-63
2021/09/24 08:12:05;;;;;;;8.10;4.68;;;486.80;1484.80;;;;;;5114143;28;20081;-63
2021/09/24 08:14:31;;;;;;;7.05;4.50;;;486.80;1484.80;;;;;;5115748;28;20043;-63
2021/09/24 08:16:57;;;;;;;8.30;4.80;;;486.90;1459.20;;;;;;5115742;28;20369;-62
2021/09/24 08:19:23;;;;;;;7.20;4.78;;;487.00;1459.20;;;;;;5115399;28;20027;-63
2021/09/24 08:21:49;;;;;;;8.48;5.22;;;487.10;1459.20;;;;;;5115344;28;20385;-63
2021/09/24 08:24:15;;;;;;;8.77;5.13;;;487.10;1433.60;;;;;;5115441;28;20028;-63
2021/09/24 08:26:40;;;;;;;13.52;4.85;;;487.20;1433.60;;;;;;5115221;28;20056;-63
2021/09/24 08:29:06;;;;;;;5.72;4.95;;;487.30;1433.60;;;;;;5115393;28;20027;-64
2021/09/24 08:31:33;;;;;;;13.00;5.00;;;512.00;1433.60;;;;;;5115109;28;20469;-63
2021/09/24 08:33:59;;;;;;;6.95;4.68;;;512.00;1433.60;;;;;;5113616;28;20088;-63
2021/09/24 08:36:25;;;;;;;11.65;5.20;;;512.20;1433.60;;;;;;5111211;28;20012;-63
2021/09/24 08:38:51;;;;;;;22.75;6.85;;;512.30;1433.60;;;;;;5114047;28;20347;-63
2021/09/24 08:41:17;;;;;;;19.73;5.30;;;512.40;1408.00;;;;;;5111656;28;20048;-63
2021/09/24 08:43:47;;;;;;;7.60;4.55;;;512.50;1408.00;;;;;;5113540;28;20027;-64
2021/09/24 08:46:17;;;;;;;7.95;4.18;;;512.60;1408.00;;;;;;5114513;28;20035;-65
2021/09/24 08:48:47;;;;;;;7.90;4.30;;;512.80;1408.00;;;;;;5115390;28;20406;-64
2021/09/24 08:51:13;;;;;;;10.48;4.95;;;512.90;1408.00;;;;;;5115317;28;20016;-64
2021/09/24 08:53:39;;;;;;;8.85;4.47;;;537.70;1408.00;;;;;;5115043;28;20030;-64
2021/09/24 08:56:05;;;;;;;10.65;4.43;;;537.80;1408.00;;;;;;5114803;28;20488;-64
2021/09/24 08:58:31;;;;;;;7.60;4.47;;;537.90;1408.00;;;;;;5114785;28;20473;-64
2021/09/24 09:00:58;;;;;;;6.95;4.80;;;538.00;1382.40;;;;;;5114902;28;20077;-64
2021/09/24 09:03:34;;;;;;;10.05;4.18;;;538.10;1382.40;;;;;;5114819;28;20035;-64
2021/09/24 09:06:03;;;;;;;7.05;3.90;;;538.10;1356.80;;;;;;5114676;28;20089;-64
2021/09/24 09:08:31;;;;;;;11.43;4.13;;;538.20;1356.80;;;;;;5114532;28;20407;-64
2021/09/24 09:11:06;;;;;;;7.28;4.25;;;538.30;1356.80;;;;;;5114574;28;20027;-64
2021/09/24 09:13:41;;;;;;;11.52;4.10;;;538.40;1356.80;;;;;;5114265;28;20031;-64
2021/09/24 09:16:18;;;;;;;5.50;4.00;;;538.40;1356.80;;;;;;5114629;28;20043;-64
2021/09/24 09:18:47;;;;;;;9.13;4.07;;;538.50;1331.20;;;;;;5114577;28;20030;-64
2021/09/24 09:21:15;;;;;;;6.90;4.10;;;538.50;1331.20;;;;;;5114715;28;20055;-64
2021/09/24 09:23:51;;;;;;;9.52;4.28;;;563.20;1356.80;;;;;;5113272;28;20073;-63
2021/09/24 09:26:18;;;;;;;8.00;4.00;;;563.20;1356.80;;;;;;5114173;28;20466;-64
2021/09/24 09:28:53;;;;;;;6.38;4.35;;;563.20;1356.80;;;;;;5114941;28;20031;-64
2021/09/24 09:31:31;;;;;;;10.70;4.05;;;563.20;1356.80;;;;;;5114409;28;20080;-64
2021/09/24 09:34:01;;;;;;;9.18;3.85;;;563.20;1356.80;;;;;;5114509;28;20114;-64
2021/09/24 09:36:30;;;;;;;6.82;3.80;;;563.30;1356.80;;;;;;5114345;28;20024;-63
2021/09/24 09:38:57;;;;;;;7.15;3.53;;;563.40;1331.20;;;;;;5114343;28;20108;-64
2021/09/24 09:41:24;;;;;;;8.93;3.65;;;563.40;1331.20;;;;;;5113689;28;20081;-64
2021/09/24 09:43:53;;;;;;;8.23;3.97;;;563.40;1305.60;;;;;;5114189;28;20023;-64
2021/09/24 09:46:25;;;;;;;5.75;3.75;;;563.50;1331.20;;;;;;5114541;28;20016;-63
2021/09/24 09:49:11;;;;;;;6.15;4.18;;;563.50;1331.20;;;;;;5114377;28;20498;-63
2021/09/24 09:51:39;;;;;;;4.78;3.63;;;563.50;1305.60;;;;;;5114030;28;20024;-63
2021/09/24 09:54:08;;;;;;;5.65;3.70;;;563.60;1305.60;;;;;;5114307;28;20145;-63
2021/09/24 09:56:39;;;;;;;7.30;3.95;;;563.70;1331.20;;;;;;5114054;28;20030;-63
2021/09/24 09:59:32;;;;;;;4.82;3.38;;;563.70;1331.20;;;;;;5114137;28;20057;-63
2021/09/24 10:02:18;;;;;;;8.45;4.38;;;563.70;1305.60;;;;;;5111275;28;20032;-63
2021/09/24 10:04:51;;;;;;;5.57;3.33;;;563.80;1305.60;;;;;;5113811;28;20526;-63
2021/09/24 10:07:19;;;;;;;7.43;3.95;;;563.80;1305.60;;;;;;5114073;28;20133;-63
2021/09/24 10:09:48;;;;;;;6.55;3.75;;;563.90;1331.20;;;;;;5114312;28;20019;-63
2021/09/24 10:12:32;;;;;;;11.80;4.00;;;564.00;1305.60;;;;;;5113768;28;20034;-63
2021/09/24 10:14:57;;;;;;;8.38;3.35;;;564.00;1305.60;;;;;;5114099;28;20357;-63
2021/09/24 10:17:23;;;;;;;5.03;3.42;;;564.00;1280.00;;;;;;5113953;28;20023;-63
2021/09/24 10:19:51;;;;;;;6.47;3.40;;;564.00;1305.60;;;;;;5113910;28;20084;-63
2021/09/24 10:22:18;;;;;;;4.68;3.50;;;564.10;1280.00;;;;;;5113779;28;20073;-63
2021/09/24 10:24:45;;;;;;;9.95;3.17;;;564.10;1280.00;;;;;;5116064;28;20028;-63
2021/09/24 10:27:17;;;;;;;7.22;3.58;;;564.10;1280.00;;;;;;5117906;28;20107;-63
2021/09/24 10:29:49;;;;;;;5.63;3.30;;;564.10;1280.00;;;;;;5116245;28;20035;-63
2021/09/24 10:32:28;;;;;;;7.55;3.47;;;588.80;1254.40;;;;;;5117595;28;20027;-63
2021/09/24 10:35:08;;;;;;;7.50;3.95;;;588.80;1280.00;;;;;;5117617;28;20055;-63
2021/09/24 10:37:45;;;;;;;6.60;3.38;;;588.80;1280.00;;;;;;5117746;28;20046;-63
2021/09/24 10:40:31;;;;;;;6.18;3.75;;;588.80;1254.40;;;;;;5117536;28;20024;-64
2021/09/24 10:42:58;;;;;;;7.10;3.17;;;588.80;1254.40;;;;;;5117036;28;20542;-63
2021/09/24 10:45:35;;;;;;;4.68;3.53;;;588.90;1254.40;;;;;;5117617;28;20035;-63
2021/09/24 10:48:25;;;;;;;6.68;3.20;;;589.00;1254.40;;;;;;5117341;28;20047;-63
2021/09/24 10:50:51;;;;;;;8.70;3.83;;;589.00;1254.40;;;;;;5117360;28;20016;-64
2021/09/24 10:53:26;;;;;;;4.90;3.03;;;589.00;1254.40;;;;;;5117229;28;20032;-63
2021/09/24 10:55:54;;;;;;;6.15;3.58;;;589.00;1254.40;;;;;;5117172;28;20027;-64
2021/09/24 10:58:26;;;;;;;6.22;3.50;;;589.10;1254.40;;;;;;5115645;28;20454;-63
2021/09/24 11:00:59;;;;;;;5.82;3.50;;;589.10;1228.80;;;;;;5117077;28;20461;-63
2021/09/24 11:03:27;;;;;;;6.90;3.28;;;589.10;1228.80;;;;;;5116657;28;20039;-64
2021/09/24 11:06:03;;;;;;;4.93;2.80;;;589.20;1228.80;;;;;;5117082;28;20068;-63
2021/09/24 11:08:32;;;;;;;5.03;2.90;;;589.20;1203.20;;;;;;5116973;28;20024;-63
2021/09/24 11:11:16;;;;;;;9.70;3.13;;;589.20;1228.80;;;;;;5116765;28;20026;-63
2021/09/24 11:13:46;;;;;;;7.35;3.47;;;589.30;1228.80;;;;;;5116944;28;20028;-63
2021/09/24 11:16:21;;;;;;;4.00;3.08;;;589.30;1228.80;;;;;;5116382;28;20032;-63
2021/09/24 11:18:58;;;;;;;6.35;2.78;;;589.30;1228.80;;;;;;5116765;28;20110;-64
2021/09/24 11:21:45;;;;;;;6.10;3.40;;;589.50;1228.80;;;;;;5116520;28;20106;-64
2021/09/24 11:24:30;;;;;;;7.32;2.80;;;589.50;1203.20;;;;;;5116780;28;20040;-63
2021/09/24 11:27:05;;;;;;;7.65;2.72;;;589.60;1203.20;;;;;;5116624;28;20456;-63
2021/09/24 11:29:31;;;;;;;10.68;3.25;;;589.60;1203.20;;;;;;5116703;28;20088;-63
2021/09/24 11:31:58;;;;;;;6.30;2.75;;;589.60;1177.60;;;;;;5116651;27;20469;-63
2021/09/24 11:34:33;;;;;;;4.97;2.92;;;589.70;1177.60;;;;;;5114844;28;20036;-63
2021/09/24 11:37:04;;;;;;;4.05;3.10;;;614.40;1152.00;;;;;;5116548;28;20034;-63
2021/09/24 11:39:31;;;;;;;8.10;3.10;;;589.70;1152.00;;;;;;5116532;28;20020;-63
2021/09/24 11:42:10;;;;;;;10.95;3.13;;;614.40;1177.60;;;;;;5115918;28;20082;-63
2021/09/24 11:44:37;;;;;;;10.02;3.53;;;614.40;1177.60;;;;;;5116048;28;20020;-63
2021/09/24 11:47:24;;;;;;;5.07;2.72;;;614.40;1152.00;;;;;;5116018;28;20057;-63
2021/09/24 11:49:57;;;;;;;6.50;2.80;;;614.40;1126.40;;;;;;5116122;28;20034;-62
2021/09/24 11:52:33;;;;;;;4.53;2.67;;;614.40;1126.40;;;;;;5116162;28;20028;-63
2021/09/24 11:55:10;;;;;;;5.60;2.78;;;614.40;1126.40;;;;;;5116244;28;20023;-63
2021/09/24 11:57:36;;;;;;;7.32;2.75;;;614.50;1152.00;;;;;;5114293;28;20027;-63
2021/09/24 12:00:03;;;;;;;4.15;2.92;;;614.50;1152.00;;;;;;5116079;28;20107;-63
2021/09/24 12:02:29;;;;;;;6.68;2.90;;;614.50;1126.40;;;;;;5115928;28;20564;-63
2021/09/24 12:05:03;;;;;;;8.85;3.20;;;614.50;1126.40;;;;;;5115382;28;20102;-63
2021/09/24 12:07:30;;;;;;;4.50;3.00;;;614.60;1152.00;;;;;;5115870;28;20043;-63
2021/09/24 12:10:01;;;;;;;4.47;3.20;;;614.60;1152.00;;;;;;5114410;28;20032;-63
2021/09/24 12:12:28;;;;;;;10.73;2.53;;;614.60;1152.00;;;;;;5115567;28;20028;-63